createdAt,value
2022-12-26T00:02:08.343Z,31.23
2022-12-26T00:04:51.708Z,34.08
2022-12-26T00:07:25.034Z,32.35
2022-12-26T00:09:56.948Z,32.80
2022-12-26T00:12:28.826Z,32.45
2022-12-26T00:15:00.688Z,33.00
2022-12-26T00:17:32.621Z,32.33
2022-12-26T00:20:05.124Z,35.25
2022-12-26T00:22:37.049Z,33.30
2022-12-26T00:25:09.132Z,36.72
2022-12-26T00:27:41.047Z,35.95
2022-12-26T00:30:13.171Z,33.25
2022-12-26T00:32:45.425Z,34.22
2022-12-26T00:35:17.505Z,32.85
2022-12-26T00:37:49.505Z,31.98
2022-12-26T00:40:21.489Z,31.75
2022-12-26T00:42:53.439Z,34.10
2022-12-26T00:45:25.408Z,32.75
2022-12-26T00:47:57.482Z,35.10
2022-12-26T00:50:34.404Z,36.13
2022-12-26T00:53:07.022Z,34.83
2022-12-26T00:55:39.210Z,34.65
2022-12-26T00:58:11.267Z,34.50
2022-12-26T01:00:43.378Z,36.03
2022-12-26T01:03:16.007Z,33.78
2022-12-26T01:05:51.955Z,34.42
2022-12-26T01:08:24.974Z,34.72
2022-12-26T01:10:57.577Z,32.38
2022-12-26T01:13:29.515Z,36.97
2022-12-26T01:16:01.694Z,36.40
2022-12-26T01:18:34.587Z,35.50
2022-12-26T01:21:10.889Z,36.22
2022-12-26T01:23:43.896Z,34.38
2022-12-26T01:26:20.116Z,34.50
2022-12-26T01:28:53.080Z,36.78
2022-12-26T01:31:25.064Z,35.38
2022-12-26T01:33:57.106Z,34.45
2022-12-26T01:36:29.209Z,33.80
2022-12-26T01:39:01.342Z,36.70
2022-12-26T01:41:33.496Z,36.70
2022-12-26T01:44:27.012Z,34.40
2022-12-26T01:46:59.048Z,35.40
2022-12-26T01:49:41.205Z,35.00
2022-12-26T01:52:20.429Z,33.95
2022-12-26T01:54:55.173Z,33.38
2022-12-26T01:57:40.299Z,33.97
2022-12-26T02:00:13.271Z,33.20
2022-12-26T02:03:04.150Z,36.30
2022-12-26T02:05:36.587Z,38.25
2022-12-26T02:08:24.466Z,33.80
2022-12-26T02:11:08.323Z,33.67
2022-12-26T02:13:41.780Z,35.70
2022-12-26T02:16:17.010Z,37.45
2022-12-26T02:18:49.048Z,34.17
2022-12-26T02:21:23.783Z,34.42
2022-12-26T02:24:01.707Z,32.60
2022-12-26T02:26:36.535Z,33.60
2022-12-26T02:29:08.440Z,33.88
2022-12-26T02:31:49.234Z,34.58
2022-12-26T02:37:23.612Z,32.65
2022-12-26T02:40:01.862Z,32.88
2022-12-26T02:42:52.410Z,33.60
2022-12-26T02:46:02.097Z,33.17
2022-12-26T02:48:42.901Z,31.88
2022-12-26T02:54:45.904Z,32.08
2022-12-26T02:57:41.246Z,28.52
2022-12-26T03:00:37.925Z,31.50
2022-12-26T03:03:36.187Z,31.88
2022-12-26T03:06:38.467Z,30.67
2022-12-26T03:09:40.800Z,31.33
2022-12-26T03:12:37.175Z,30.92
2022-12-26T03:15:13.841Z,29.90
2022-12-26T03:17:54.886Z,29.38
2022-12-26T03:20:35.298Z,27.77
2022-12-26T03:23:12.238Z,31.45
2022-12-26T03:26:10.739Z,28.85
2022-12-26T03:28:43.725Z,29.48
2022-12-26T03:31:17.000Z,28.67
2022-12-26T03:34:07.288Z,28.73
2022-12-26T03:37:03.866Z,28.52
2022-12-26T03:40:05.658Z,27.20
2022-12-26T03:43:19.341Z,27.45
2022-12-26T03:46:21.963Z,27.45
2022-12-26T03:49:27.287Z,26.63
2022-12-26T03:52:57.226Z,25.77
2022-12-26T03:55:52.280Z,28.35
2022-12-26T03:58:48.920Z,25.55
2022-12-26T04:01:48.697Z,28.58
2022-12-26T04:04:42.027Z,27.98
2022-12-26T04:07:56.782Z,27.17
2022-12-26T04:10:56.244Z,28.42
2022-12-26T04:14:11.451Z,27.73
2022-12-26T04:17:24.382Z,27.42
2022-12-26T04:20:09.625Z,28.83
2022-12-26T04:23:11.039Z,29.67
2022-12-26T04:26:09.355Z,26.55
2022-12-26T04:29:00.148Z,28.30
2022-12-26T04:34:57.877Z,27.00
2022-12-26T04:37:51.500Z,25.95
2022-12-26T04:40:48.152Z,26.10
2022-12-26T04:43:50.391Z,26.15
2022-12-26T04:46:26.392Z,26.45
2022-12-26T04:49:18.875Z,25.05
2022-12-26T04:51:51.631Z,24.48
2022-12-26T04:54:24.050Z,25.40
2022-12-26T04:56:56.057Z,24.67
2022-12-26T04:59:28.808Z,24.73
2022-12-26T05:02:19.644Z,24.27
2022-12-26T05:05:10.306Z,24.00
2022-12-26T05:08:01.591Z,22.25
2022-12-26T05:10:33.685Z,22.42
2022-12-26T05:13:05.673Z,23.23
2022-12-26T05:15:57.682Z,22.48
2022-12-26T05:18:48.092Z,22.45
2022-12-26T05:21:38.833Z,21.38
2022-12-26T05:24:29.839Z,21.50
2022-12-26T05:27:20.817Z,20.52
2022-12-26T05:29:53.082Z,21.35
2022-12-26T05:32:43.680Z,20.27
2022-12-26T05:35:15.655Z,19.83
2022-12-26T05:37:47.653Z,19.13
2022-12-26T05:40:19.655Z,19.20
2022-12-26T05:42:51.714Z,19.08
2022-12-26T05:45:23.810Z,19.88
2022-12-26T05:48:00.755Z,17.98
2022-12-26T05:50:32.714Z,17.90
2022-12-26T05:53:04.878Z,18.40
2022-12-26T05:55:36.998Z,18.25
2022-12-26T05:58:09.215Z,17.08
2022-12-26T06:00:41.181Z,18.67
2022-12-26T06:03:13.427Z,19.30
2022-12-26T06:05:45.515Z,21.50
2022-12-26T06:08:17.441Z,20.83
2022-12-26T06:10:49.533Z,20.83
2022-12-26T06:13:21.689Z,20.35
2022-12-26T06:15:53.744Z,18.73
2022-12-26T06:18:26.200Z,18.92
2022-12-26T06:20:58.152Z,20.35
2022-12-26T06:23:30.144Z,20.77
2022-12-26T06:26:02.692Z,18.63
2022-12-26T06:28:35.472Z,20.60
2022-12-26T06:31:16.575Z,19.83
2022-12-26T06:33:55.485Z,18.73
2022-12-26T06:36:29.056Z,20.65
2022-12-26T06:39:01.564Z,20.17
2022-12-26T06:41:33.499Z,19.80
2022-12-26T06:44:05.698Z,20.60
2022-12-26T06:46:37.849Z,20.00
2022-12-26T06:49:09.832Z,20.30
2022-12-26T06:51:41.869Z,21.63
2022-12-26T06:54:13.848Z,22.70
2022-12-26T06:56:45.796Z,21.13
2022-12-26T06:59:18.233Z,22.20
2022-12-26T07:01:50.355Z,19.60
2022-12-26T07:04:22.464Z,20.20
2022-12-26T07:06:54.448Z,18.88
2022-12-26T07:09:33.185Z,19.15
2022-12-26T07:12:06.582Z,19.00
2022-12-26T07:14:38.588Z,19.30
2022-12-26T07:17:11.044Z,20.95
2022-12-26T07:19:42.982Z,22.10
2022-12-26T07:22:14.939Z,18.55
2022-12-26T07:24:46.857Z,18.67
2022-12-26T07:27:18.892Z,19.17
2022-12-26T07:29:51.051Z,21.45
2022-12-26T07:32:23.115Z,18.35
2022-12-26T07:34:55.101Z,17.48
2022-12-26T07:37:27.126Z,18.45
2022-12-26T07:39:59.558Z,19.17
2022-12-26T07:42:31.655Z,20.20
2022-12-26T07:45:03.968Z,22.25
2022-12-26T07:47:35.967Z,20.75
2022-12-26T07:50:08.427Z,22.73
2022-12-26T07:52:40.395Z,19.88
2022-12-26T07:55:12.333Z,22.63
2022-12-26T07:57:48.863Z,22.23
2022-12-26T08:00:23.130Z,22.50
2022-12-26T08:02:57.569Z,22.58
2022-12-26T08:05:31.727Z,20.35
2022-12-26T08:08:04.208Z,24.08
2022-12-26T08:10:36.276Z,21.35
2022-12-26T08:13:08.485Z,21.75
2022-12-26T08:15:41.479Z,22.60
2022-12-26T08:18:13.397Z,23.65
2022-12-26T08:20:45.400Z,24.00
2022-12-26T08:23:17.852Z,25.30
2022-12-26T08:25:49.819Z,27.27
2022-12-26T08:28:21.865Z,30.92
2022-12-26T08:30:53.787Z,24.60
2022-12-26T08:33:26.605Z,18.67
2022-12-26T08:36:06.337Z,21.58
2022-12-26T08:38:38.885Z,26.85
2022-12-26T08:41:11.136Z,25.15
2022-12-26T08:44:24.908Z,22.73
2022-12-26T08:46:35.929Z,21.45
2022-12-26T08:49:07.945Z,20.70
2022-12-26T08:51:40.196Z,18.27
2022-12-26T08:54:12.125Z,17.55
2022-12-26T08:56:44.269Z,20.25
2022-12-26T08:59:16.536Z,18.73
2022-12-26T09:01:48.866Z,22.63
2022-12-26T09:04:20.936Z,19.13
2022-12-26T09:06:52.969Z,17.92
2022-12-26T09:09:24.906Z,18.75
2022-12-26T09:11:56.865Z,18.95
2022-12-26T09:14:28.833Z,17.73
2022-12-26T09:17:00.834Z,22.48
2022-12-26T09:19:32.860Z,21.05
2022-12-26T09:22:23.721Z,19.83
2022-12-26T09:27:29.323Z,21.42
2022-12-26T09:30:01.488Z,25.02
2022-12-26T09:32:35.414Z,21.73
2022-12-26T09:35:08.085Z,25.27
2022-12-26T09:37:40.014Z,23.05
2022-12-26T09:40:22.466Z,20.15
2022-12-26T09:43:09.769Z,25.60
2022-12-26T09:46:07.413Z,24.40
2022-12-26T09:49:25.877Z,26.85
2022-12-26T09:52:03.398Z,27.60
2022-12-26T09:54:40.775Z,28.88
2022-12-26T09:57:17.621Z,39.70
2022-12-26T09:59:57.323Z,32.50
2022-12-26T10:02:29.638Z,28.55
2022-12-26T10:05:01.888Z,26.83
2022-12-26T10:07:43.007Z,27.42
2022-12-26T10:10:50.783Z,25.13
2022-12-26T10:13:59.799Z,26.52
2022-12-26T10:17:15.092Z,24.20
2022-12-26T10:20:05.312Z,24.73
2022-12-26T10:22:52.426Z,30.23
2022-12-26T10:25:47.587Z,28.42
2022-12-26T10:28:34.627Z,24.02
2022-12-26T10:31:13.905Z,27.60
2022-12-26T10:33:59.041Z,30.30
2022-12-26T10:36:39.848Z,34.75
2022-12-26T10:42:00.156Z,27.73
2022-12-26T10:44:32.135Z,33.10
2022-12-26T10:47:09.960Z,34.78
2022-12-26T10:49:45.416Z,31.40
2022-12-26T10:52:20.881Z,32.83
2022-12-26T10:55:28.466Z,34.83
2022-12-26T10:57:53.291Z,38.97
2022-12-26T11:00:27.738Z,40.90
2022-12-26T11:03:09.038Z,34.92
2022-12-26T11:08:56.137Z,28.60
2022-12-26T11:14:33.227Z,28.75
2022-12-26T11:17:13.095Z,27.88
2022-12-26T11:19:45.148Z,32.03
2022-12-26T11:22:29.226Z,30.48
2022-12-26T11:25:10.334Z,28.80
2022-12-26T11:27:45.325Z,29.50
2022-12-26T11:30:28.586Z,36.85
2022-12-26T11:33:17.098Z,37.40
2022-12-26T11:35:55.194Z,44.13
2022-12-26T11:38:44.568Z,43.58
2022-12-26T11:41:40.149Z,37.95
2022-12-26T11:44:20.530Z,35.78
2022-12-26T11:46:58.233Z,29.17
2022-12-26T11:49:35.107Z,31.73
2022-12-26T11:52:31.804Z,27.05
2022-12-26T11:55:22.473Z,29.45
2022-12-26T11:58:24.041Z,26.48
2022-12-26T12:01:02.083Z,26.02
2022-12-26T12:03:50.050Z,25.48
2022-12-26T12:06:56.718Z,22.92
2022-12-26T12:10:03.337Z,24.08
2022-12-26T12:12:50.604Z,21.83
2022-12-26T12:15:31.876Z,20.70
2022-12-26T12:18:20.735Z,23.25
2022-12-26T12:20:55.433Z,23.58
2022-12-26T12:24:01.864Z,22.40
2022-12-26T12:26:54.910Z,23.58
2022-12-26T12:29:47.973Z,21.88
2022-12-26T12:32:31.617Z,19.98
2022-12-26T12:35:03.499Z,18.92
2022-12-26T12:37:44.442Z,19.13
2022-12-26T12:40:22.584Z,18.83
2022-12-26T12:43:15.156Z,17.77
2022-12-26T12:46:08.934Z,18.15
2022-12-26T12:48:52.846Z,16.48
2022-12-26T12:51:48.981Z,16.42
2022-12-26T12:55:00.926Z,15.65
2022-12-26T12:58:06.526Z,15.98
2022-12-26T13:00:47.862Z,16.35
2022-12-26T13:03:30.621Z,14.77
2022-12-26T13:06:08.509Z,16.15
2022-12-26T13:08:41.910Z,15.40
2022-12-26T13:11:38.763Z,14.98
2022-12-26T13:14:22.603Z,15.43
2022-12-26T13:16:58.746Z,14.57
2022-12-26T13:19:41.357Z,15.63
2022-12-26T13:22:57.727Z,14.27
2022-12-26T13:25:37.063Z,15.73
2022-12-26T13:28:18.321Z,16.60
2022-12-26T13:30:55.177Z,16.35
2022-12-26T13:33:27.637Z,17.20
2022-12-26T13:36:02.029Z,15.65
2022-12-26T13:38:58.937Z,17.52
2022-12-26T13:41:51.282Z,18.50
2022-12-26T13:44:23.321Z,18.88
2022-12-26T13:46:58.155Z,18.33
2022-12-26T13:49:39.268Z,18.38
2022-12-26T13:52:11.161Z,19.15
2022-12-26T13:55:06.251Z,18.67
2022-12-26T13:57:45.152Z,19.45
2022-12-26T14:00:18.591Z,20.08
2022-12-26T14:03:24.472Z,20.30
2022-12-26T14:06:31.600Z,19.05
2022-12-26T14:09:29.029Z,19.17
2022-12-26T14:12:25.060Z,23.20
2022-12-26T14:15:24.417Z,27.13
2022-12-26T14:17:59.513Z,29.33
2022-12-26T14:20:43.232Z,32.47
2022-12-26T14:23:33.815Z,30.73
2022-12-26T14:26:05.739Z,29.02
2022-12-26T14:29:02.631Z,33.50
2022-12-26T14:31:57.543Z,35.58
2022-12-26T14:34:48.008Z,36.63
2022-12-26T14:37:25.519Z,36.92
2022-12-26T14:39:57.318Z,35.63
2022-12-26T14:42:48.998Z,34.10
2022-12-26T14:45:29.672Z,29.33
2022-12-26T14:48:02.515Z,29.25
2022-12-26T14:50:35.745Z,31.67
2022-12-26T14:53:28.587Z,31.80
2022-12-26T14:56:02.104Z,29.83
2022-12-26T14:58:47.020Z,37.63
2022-12-26T15:01:25.061Z,32.67
2022-12-26T15:04:19.723Z,31.45
2022-12-26T15:07:06.807Z,31.80
2022-12-26T15:09:48.811Z,35.92
2022-12-26T15:13:15.168Z,34.58
2022-12-26T15:15:47.271Z,26.75
2022-12-26T15:18:56.944Z,24.05
2022-12-26T15:21:34.863Z,24.70
2022-12-26T15:25:08.392Z,27.77
2022-12-26T15:28:09.435Z,26.13
2022-12-26T15:31:10.666Z,28.70
2022-12-26T15:33:52.172Z,30.55
2022-12-26T15:37:15.094Z,29.38
2022-12-26T15:39:56.536Z,26.65
2022-12-26T15:42:55.837Z,29.17
2022-12-26T15:45:52.545Z,26.33
2022-12-26T15:48:49.895Z,22.50
2022-12-26T15:51:38.189Z,26.52
2022-12-26T15:54:18.980Z,28.55
2022-12-26T16:00:00.975Z,21.50
2022-12-26T16:02:38.936Z,23.05
2022-12-26T16:05:10.980Z,25.23
2022-12-26T16:07:56.037Z,23.05
2022-12-26T16:10:36.225Z,21.95
2022-12-26T16:13:13.881Z,19.85
2022-12-26T16:15:49.425Z,18.65
2022-12-26T16:18:26.707Z,19.20
2022-12-26T16:21:24.021Z,18.63
2022-12-26T16:23:57.612Z,18.02
2022-12-26T16:26:32.644Z,18.65
2022-12-26T16:29:05.609Z,17.83
2022-12-26T16:31:37.778Z,22.40
2022-12-26T16:34:29.217Z,20.90
2022-12-26T16:37:01.271Z,19.83
2022-12-26T16:39:33.216Z,19.30
2022-12-26T16:42:07.667Z,20.17
2022-12-26T16:44:43.423Z,20.35
2022-12-26T16:47:16.644Z,24.75
2022-12-26T16:49:49.003Z,27.15
2022-12-26T16:52:39.238Z,20.17
2022-12-26T16:55:29.465Z,18.65
2022-12-26T16:58:05.060Z,19.83
2022-12-26T17:00:37.200Z,19.02
2022-12-26T17:03:20.511Z,18.90
2022-12-26T17:05:52.519Z,20.52
2022-12-26T17:08:24.972Z,20.10
2022-12-26T17:10:57.448Z,19.52
2022-12-26T17:13:29.651Z,18.15
2022-12-26T17:16:05.517Z,19.10
2022-12-26T17:18:54.091Z,19.48
2022-12-26T17:21:32.154Z,19.88
2022-12-26T17:24:10.128Z,19.90
2022-12-26T17:26:43.957Z,20.23
2022-12-26T17:29:36.188Z,20.42
2022-12-26T17:32:09.129Z,18.65
2022-12-26T17:34:41.814Z,18.50
2022-12-26T17:37:22.928Z,20.40
2022-12-26T17:40:16.090Z,21.85
2022-12-26T17:42:51.327Z,20.60
2022-12-26T17:45:26.172Z,21.90
2022-12-26T17:47:59.029Z,21.75
2022-12-26T17:50:37.132Z,23.30
2022-12-26T17:53:33.856Z,23.55
2022-12-26T17:56:11.192Z,20.13
2022-12-26T17:58:44.718Z,23.05
2022-12-26T18:01:20.978Z,21.13
2022-12-26T18:03:54.136Z,21.95
2022-12-26T18:06:26.301Z,20.40
2022-12-26T18:08:58.613Z,24.13
2022-12-26T18:11:30.588Z,25.42
2022-12-26T18:14:02.520Z,24.88
2022-12-26T18:16:34.852Z,23.38
2022-12-26T18:19:06.808Z,24.52
2022-12-26T18:21:38.834Z,20.92
2022-12-26T18:24:11.045Z,21.40
2022-12-26T18:26:43.705Z,20.25
2022-12-26T18:29:15.692Z,21.80
2022-12-26T18:31:47.716Z,22.55
2022-12-26T18:34:19.878Z,23.83
2022-12-26T18:36:51.822Z,23.95
2022-12-26T18:39:23.765Z,23.42
2022-12-26T18:41:55.708Z,23.23
2022-12-26T18:44:27.683Z,21.30
2022-12-26T18:46:59.612Z,24.08
2022-12-26T18:49:31.628Z,20.42
2022-12-26T18:52:03.785Z,20.92
2022-12-26T18:54:36.822Z,22.58
2022-12-26T18:57:16.524Z,22.10
2022-12-26T18:59:48.727Z,20.77
2022-12-26T19:02:20.850Z,21.90
2022-12-26T19:04:52.796Z,23.15
2022-12-26T19:07:24.744Z,21.45
2022-12-26T19:09:58.411Z,20.17
2022-12-26T19:12:30.378Z,20.40
2022-12-26T19:15:02.597Z,19.85
2022-12-26T19:17:35.354Z,21.25
2022-12-26T19:20:10.135Z,22.90
2022-12-26T19:22:42.149Z,22.23
2022-12-26T19:25:14.552Z,24.90
2022-12-26T19:27:47.450Z,21.85
2022-12-26T19:30:20.766Z,25.63
2022-12-26T19:32:52.670Z,25.70
2022-12-26T19:35:24.803Z,25.95
2022-12-26T19:37:58.537Z,25.13
2022-12-26T19:40:30.565Z,20.92
2022-12-26T19:43:02.610Z,26.70
2022-12-26T19:45:34.628Z,24.60
2022-12-26T19:48:06.896Z,29.15
2022-12-26T19:50:38.810Z,29.15
2022-12-26T19:53:10.773Z,30.15
2022-12-26T19:55:42.750Z,29.80
2022-12-26T19:58:14.678Z,24.42
2022-12-26T20:00:47.006Z,24.23
2022-12-26T20:03:19.065Z,30.33
2022-12-26T20:05:51.073Z,28.40
2022-12-26T20:08:23.035Z,24.77
2022-12-26T20:11:00.599Z,29.83
2022-12-26T20:13:33.015Z,23.58
2022-12-26T20:16:14.530Z,26.90
2022-12-26T20:21:27.962Z,23.88
2022-12-26T20:24:01.464Z,26.10
2022-12-26T20:26:33.455Z,25.15
2022-12-26T20:29:05.871Z,25.30
2022-12-26T20:31:39.704Z,24.88
2022-12-26T20:34:12.328Z,26.50
2022-12-26T20:36:44.400Z,26.33
2022-12-26T20:39:19.381Z,22.65
2022-12-26T20:41:51.345Z,23.73
2022-12-26T20:44:24.772Z,25.88
2022-12-26T20:46:56.697Z,24.80
2022-12-26T20:49:29.465Z,28.63
2022-12-26T20:52:01.677Z,28.52
2022-12-26T20:54:33.848Z,25.73
2022-12-26T20:57:05.765Z,28.50
2022-12-26T20:59:37.876Z,28.77
2022-12-26T21:02:13.388Z,26.00
2022-12-26T21:04:45.565Z,28.30
2022-12-26T21:07:17.454Z,27.48
2022-12-26T21:09:49.393Z,26.38
2022-12-26T21:12:21.252Z,26.45
2022-12-26T21:14:53.184Z,24.45
2022-12-26T21:17:25.067Z,26.30
2022-12-26T21:19:56.922Z,25.70
2022-12-26T21:22:28.881Z,26.10
2022-12-26T21:25:00.731Z,24.02
2022-12-26T21:27:32.661Z,23.55
2022-12-26T21:30:04.935Z,23.85
2022-12-26T21:32:37.982Z,33.38
2022-12-26T21:35:09.843Z,39.22
2022-12-26T21:37:53.973Z,36.15
2022-12-26T21:40:27.879Z,25.92
2022-12-26T21:42:59.801Z,28.45
2022-12-26T21:45:31.705Z,30.75
2022-12-26T21:48:03.849Z,30.88
2022-12-26T21:50:36.531Z,33.47
2022-12-26T21:53:08.546Z,26.52
2022-12-26T21:55:40.536Z,23.73
2022-12-26T21:58:12.451Z,27.25
2022-12-26T22:00:45.498Z,22.77
2022-12-26T22:03:36.370Z,22.98
2022-12-26T22:08:46.774Z,28.95
2022-12-26T22:11:37.876Z,23.75
2022-12-26T22:14:10.127Z,24.75
2022-12-26T22:16:42.135Z,23.92
2022-12-26T22:19:14.073Z,28.80
2022-12-26T22:21:46.093Z,25.58
2022-12-26T22:24:18.040Z,24.40
2022-12-26T22:26:50.220Z,23.38
2022-12-26T22:29:22.081Z,28.98
2022-12-26T22:31:58.632Z,27.42
2022-12-26T22:34:30.591Z,22.48
2022-12-26T22:37:02.467Z,27.80
2022-12-26T22:39:34.419Z,28.52
2022-12-26T22:42:06.416Z,26.55
2022-12-26T22:44:38.414Z,26.80
2022-12-26T22:47:10.373Z,30.13
2022-12-26T22:49:42.311Z,27.15
2022-12-26T22:52:16.122Z,24.58
2022-12-26T22:54:48.172Z,24.35
2022-12-26T22:57:20.649Z,25.95
2022-12-26T23:00:09.757Z,22.15
2022-12-26T23:02:42.520Z,25.55
2022-12-26T23:05:14.892Z,21.90
2022-12-26T23:07:47.473Z,21.20
2022-12-26T23:10:23.506Z,22.75
2022-12-26T23:12:56.167Z,26.35
2022-12-26T23:15:29.183Z,25.98
2022-12-26T23:18:40.367Z,29.35
2022-12-26T23:21:42.644Z,27.33
2022-12-26T23:24:17.834Z,24.00
2022-12-26T23:26:52.773Z,24.33
2022-12-26T23:29:43.408Z,22.90
2022-12-26T23:32:15.377Z,27.08
2022-12-26T23:34:47.325Z,22.67
2022-12-26T23:37:19.832Z,25.23
2022-12-26T23:39:51.771Z,31.50
2022-12-26T23:42:23.616Z,31.27
2022-12-26T23:44:55.476Z,23.45
2022-12-26T23:47:27.690Z,24.83
2022-12-26T23:49:59.516Z,23.58
2022-12-26T23:52:31.738Z,21.15
2022-12-26T23:55:04.302Z,30.27
2022-12-26T23:57:36.198Z,26.75
